sensor_id;sensor_type;location;lat;lon;timestamp;temperature;humidity
42145;DHT22;27813;43.516;11.890;2024-02-26T00:01:58;0.00;95.80
42145;DHT22;27813;43.516;11.890;2024-02-26T00:06:02;0.00;95.50
42145;DHT22;27813;43.516;11.890;2024-02-26T00:10:07;0.00;95.60
42145;DHT22;27813;43.516;11.890;2024-02-26T00:14:12;-3276.70;95.50
42145;DHT22;27813;43.516;11.890;2024-02-26T00:18:17;-3276.60;95.50
42145;DHT22;27813;43.516;11.890;2024-02-26T00:22:21;-3276.50;95.50
42145;DHT22;27813;43.516;11.890;2024-02-26T00:26:26;-3276.50;95.50
42145;DHT22;27813;43.516;11.890;2024-02-26T00:30:30;-3276.40;95.80
42145;DHT22;27813;43.516;11.890;2024-02-26T00:34:34;-3276.50;95.90
42145;DHT22;27813;43.516;11.890;2024-02-26T00:38:38;-3276.40;95.80
42145;DHT22;27813;43.516;11.890;2024-02-26T00:42:44;-3276.40;95.70
42145;DHT22;27813;43.516;11.890;2024-02-26T00:46:49;-3276.30;95.60
42145;DHT22;27813;43.516;11.890;2024-02-26T00:50:54;-3276.30;95.50
42145;DHT22;27813;43.516;11.890;2024-02-26T00:54:58;-3276.30;95.40
42145;DHT22;27813;43.516;11.890;2024-02-26T00:59:02;-3276.20;95.20
42145;DHT22;27813;43.516;11.890;2024-02-26T01:03:06;-3276.10;95.30
42145;DHT22;27813;43.516;11.890;2024-02-26T01:07:10;-3276.30;95.90
42145;DHT22;27813;43.516;11.890;2024-02-26T01:11:15;-3276.40;96.00
42145;DHT22;27813;43.516;11.890;2024-02-26T01:15:19;-3276.40;95.60
42145;DHT22;27813;43.516;11.890;2024-02-26T01:19:27;-3276.40;95.60
42145;DHT22;27813;43.516;11.890;2024-02-26T01:23:32;-3276.40;95.70
42145;DHT22;27813;43.516;11.890;2024-02-26T01:27:37;-3276.60;96.30
42145;DHT22;27813;43.516;11.890;2024-02-26T01:31:41;-3276.70;96.40
42145;DHT22;27813;43.516;11.890;2024-02-26T01:35:45;0.00;96.40
42145;DHT22;27813;43.516;11.890;2024-02-26T01:39:50;0.00;96.40
42145;DHT22;27813;43.516;11.890;2024-02-26T01:43:54;0.00;96.30
42145;DHT22;27813;43.516;11.890;2024-02-26T01:47:58;0.00;96.30
42145;DHT22;27813;43.516;11.890;2024-02-26T01:52:04;-3276.70;96.20
42145;DHT22;27813;43.516;11.890;2024-02-26T01:56:09;0.00;96.40
42145;DHT22;27813;43.516;11.890;2024-02-26T02:00:14;0.00;96.30
42145;DHT22;27813;43.516;11.890;2024-02-26T02:04:21;0.00;96.20
42145;DHT22;27813;43.516;11.890;2024-02-26T02:08:27;0.00;96.20
42145;DHT22;27813;43.516;11.890;2024-02-26T02:12:32;0.00;96.50
42145;DHT22;27813;43.516;11.890;2024-02-26T02:16:37;0.10;96.80
42145;DHT22;27813;43.516;11.890;2024-02-26T02:20:42;0.20;96.90
42145;DHT22;27813;43.516;11.890;2024-02-26T02:24:46;0.40;97.10
42145;DHT22;27813;43.516;11.890;2024-02-26T02:28:50;0.60;97.30
42145;DHT22;27813;43.516;11.890;2024-02-26T02:32:58;0.80;97.40
42145;DHT22;27813;43.516;11.890;2024-02-26T02:37:08;0.80;97.50
42145;DHT22;27813;43.516;11.890;2024-02-26T02:41:12;0.90;97.50
42145;DHT22;27813;43.516;11.890;2024-02-26T02:45:16;1.00;97.60
42145;DHT22;27813;43.516;11.890;2024-02-26T02:49:20;1.00;97.50
42145;DHT22;27813;43.516;11.890;2024-02-26T02:53:26;1.00;97.40
42145;DHT22;27813;43.516;11.890;2024-02-26T02:57:31;0.90;97.20
42145;DHT22;27813;43.516;11.890;2024-02-26T03:06:09;0.60;96.90
42145;DHT22;27813;43.516;11.890;2024-02-26T03:10:15;0.60;96.80
42145;DHT22;27813;43.516;11.890;2024-02-26T03:14:19;0.50;96.80
42145;DHT22;27813;43.516;11.890;2024-02-26T03:18:26;0.50;97.00
42145;DHT22;27813;43.516;11.890;2024-02-26T03:22:31;0.50;97.00
42145;DHT22;27813;43.516;11.890;2024-02-26T03:26:36;0.50;97.00
42145;DHT22;27813;43.516;11.890;2024-02-26T03:30:40;0.40;96.80
42145;DHT22;27813;43.516;11.890;2024-02-26T03:34:45;0.30;96.60
42145;DHT22;27813;43.516;11.890;2024-02-26T03:38:50;0.30;96.50
42145;DHT22;27813;43.516;11.890;2024-02-26T03:42:54;0.20;96.50
42145;DHT22;27813;43.516;11.890;2024-02-26T03:46:58;0.10;96.30
42145;DHT22;27813;43.516;11.890;2024-02-26T03:51:03;0.10;96.40
42145;DHT22;27813;43.516;11.890;2024-02-26T03:55:09;0.10;96.50
42145;DHT22;27813;43.516;11.890;2024-02-26T03:59:14;0.10;96.50
42145;DHT22;27813;43.516;11.890;2024-02-26T04:03:18;0.20;96.40
42145;DHT22;27813;43.516;11.890;2024-02-26T04:07:23;0.20;96.40
42145;DHT22;27813;43.516;11.890;2024-02-26T04:11:28;0.20;96.50
42145;DHT22;27813;43.516;11.890;2024-02-26T04:15:32;0.20;96.60
42145;DHT22;27813;43.516;11.890;2024-02-26T04:19:36;0.20;96.50
42145;DHT22;27813;43.516;11.890;2024-02-26T04:23:42;0.20;96.50
42145;DHT22;27813;43.516;11.890;2024-02-26T04:27:46;0.30;96.60
42145;DHT22;27813;43.516;11.890;2024-02-26T04:31:51;0.30;96.60
42145;DHT22;27813;43.516;11.890;2024-02-26T04:35:55;0.20;96.60
42145;DHT22;27813;43.516;11.890;2024-02-26T04:40:00;0.30;96.70
42145;DHT22;27813;43.516;11.890;2024-02-26T04:44:07;0.40;97.00
42145;DHT22;27813;43.516;11.890;2024-02-26T04:48:11;0.50;97.20
42145;DHT22;27813;43.516;11.890;2024-02-26T04:52:17;0.70;97.40
42145;DHT22;27813;43.516;11.890;2024-02-26T04:56:21;0.70;97.40
42145;DHT22;27813;43.516;11.890;2024-02-26T05:00:25;0.70;97.20
42145;DHT22;27813;43.516;11.890;2024-02-26T05:04:30;0.60;97.10
42145;DHT22;27813;43.516;11.890;2024-02-26T05:08:35;0.50;96.90
42145;DHT22;27813;43.516;11.890;2024-02-26T05:12:42;0.40;96.80
42145;DHT22;27813;43.516;11.890;2024-02-26T05:16:48;0.30;96.70
42145;DHT22;27813;43.516;11.890;2024-02-26T05:20:54;0.20;96.60
42145;DHT22;27813;43.516;11.890;2024-02-26T05:24:58;0.20;96.70
42145;DHT22;27813;43.516;11.890;2024-02-26T05:29:02;0.10;96.60
42145;DHT22;27813;43.516;11.890;2024-02-26T05:33:13;0.10;96.50
42145;DHT22;27813;43.516;11.890;2024-02-26T05:37:21;0.10;96.60
42145;DHT22;27813;43.516;11.890;2024-02-26T05:41:25;0.10;96.80
42145;DHT22;27813;43.516;11.890;2024-02-26T05:45:31;0.30;97.10
42145;DHT22;27813;43.516;11.890;2024-02-26T05:49:46;0.40;97.30
42145;DHT22;27813;43.516;11.890;2024-02-26T05:53:57;0.70;97.60
42145;DHT22;27813;43.516;11.890;2024-02-26T05:58:02;0.90;97.80
42145;DHT22;27813;43.516;11.890;2024-02-26T06:02:07;1.10;98.00
42145;DHT22;27813;43.516;11.890;2024-02-26T06:06:11;1.30;98.10
42145;DHT22;27813;43.516;11.890;2024-02-26T06:10:18;1.40;98.10
42145;DHT22;27813;43.516;11.890;2024-02-26T06:14:31;1.60;98.20
42145;DHT22;27813;43.516;11.890;2024-02-26T06:18:37;1.70;98.20
42145;DHT22;27813;43.516;11.890;2024-02-26T06:22:43;1.80;98.20
42145;DHT22;27813;43.516;11.890;2024-02-26T06:26:49;1.90;98.20
42145;DHT22;27813;43.516;11.890;2024-02-26T06:30:58;2.00;98.30
42145;DHT22;27813;43.516;11.890;2024-02-26T06:35:12;2.30;98.40
42145;DHT22;27813;43.516;11.890;2024-02-26T06:39:17;2.40;98.40
42145;DHT22;27813;43.516;11.890;2024-02-26T06:43:23;2.50;98.50
42145;DHT22;27813;43.516;11.890;2024-02-26T06:47:28;2.60;98.50
42145;DHT22;27813;43.516;11.890;2024-02-26T06:51:32;2.70;98.50
42145;DHT22;27813;43.516;11.890;2024-02-26T06:55:37;2.80;98.50
42145;DHT22;27813;43.516;11.890;2024-02-26T06:59:45;2.90;98.60
42145;DHT22;27813;43.516;11.890;2024-02-26T07:03:55;3.10;98.60
42145;DHT22;27813;43.516;11.890;2024-02-26T07:08:02;3.20;98.60
42145;DHT22;27813;43.516;11.890;2024-02-26T07:12:06;3.30;98.70
42145;DHT22;27813;43.516;11.890;2024-02-26T07:16:11;3.50;98.70
42145;DHT22;27813;43.516;11.890;2024-02-26T07:20:17;3.60;98.80
42145;DHT22;27813;43.516;11.890;2024-02-26T07:24:23;3.80;98.80
42145;DHT22;27813;43.516;11.890;2024-02-26T07:28:27;3.90;98.80
42145;DHT22;27813;43.516;11.890;2024-02-26T07:32:33;3.90;98.70
42145;DHT22;27813;43.516;11.890;2024-02-26T07:36:37;3.80;98.70
42145;DHT22;27813;43.516;11.890;2024-02-26T07:40:45;3.80;98.60
42145;DHT22;27813;43.516;11.890;2024-02-26T07:45:02;3.90;98.70
42145;DHT22;27813;43.516;11.890;2024-02-26T07:49:07;4.00;98.70
42145;DHT22;27813;43.516;11.890;2024-02-26T07:53:13;4.20;98.80
42145;DHT22;27813;43.516;11.890;2024-02-26T07:57:18;4.50;98.80
42145;DHT22;27813;43.516;11.890;2024-02-26T08:01:27;4.70;98.90
42145;DHT22;27813;43.516;11.890;2024-02-26T08:05:32;5.30;99.10
42145;DHT22;27813;43.516;11.890;2024-02-26T08:09:37;5.80;99.20
42145;DHT22;27813;43.516;11.890;2024-02-26T08:13:42;6.20;99.30
42145;DHT22;27813;43.516;11.890;2024-02-26T08:17:46;6.50;99.30
42145;DHT22;27813;43.516;11.890;2024-02-26T08:21:51;6.70;99.30
42145;DHT22;27813;43.516;11.890;2024-02-26T08:25:57;6.80;99.30
42145;DHT22;27813;43.516;11.890;2024-02-26T08:30:06;6.90;99.20
42145;DHT22;27813;43.516;11.890;2024-02-26T08:34:12;6.90;99.20
42145;DHT22;27813;43.516;11.890;2024-02-26T08:38:19;7.00;99.20
42145;DHT22;27813;43.516;11.890;2024-02-26T08:42:24;7.00;99.10
42145;DHT22;27813;43.516;11.890;2024-02-26T08:46:29;7.10;99.10
42145;DHT22;27813;43.516;11.890;2024-02-26T08:50:34;7.30;99.10
42145;DHT22;27813;43.516;11.890;2024-02-26T08:54:42;7.60;99.10
42145;DHT22;27813;43.516;11.890;2024-02-26T08:59:17;8.00;99.20
42145;DHT22;27813;43.516;11.890;2024-02-26T09:03:29;8.30;99.30
42145;DHT22;27813;43.516;11.890;2024-02-26T09:07:34;8.30;99.20
42145;DHT22;27813;43.516;11.890;2024-02-26T09:11:43;8.20;99.10
42145;DHT22;27813;43.516;11.890;2024-02-26T09:15:49;8.10;99.00
42145;DHT22;27813;43.516;11.890;2024-02-26T09:19:54;8.10;99.00
42145;DHT22;27813;43.516;11.890;2024-02-26T09:24:00;8.10;99.00
42145;DHT22;27813;43.516;11.890;2024-02-26T09:28:07;8.20;98.90
42145;DHT22;27813;43.516;11.890;2024-02-26T09:32:13;8.00;98.80
42145;DHT22;27813;43.516;11.890;2024-02-26T09:36:26;7.90;98.50
42145;DHT22;27813;43.516;11.890;2024-02-26T09:40:32;7.70;98.20
42145;DHT22;27813;43.516;11.890;2024-02-26T09:44:40;7.60;98.20
42145;DHT22;27813;43.516;11.890;2024-02-26T09:48:51;7.70;98.30
42145;DHT22;27813;43.516;11.890;2024-02-26T09:52:57;7.80;98.50
42145;DHT22;27813;43.516;11.890;2024-02-26T09:57:06;8.00;98.90
42145;DHT22;27813;43.516;11.890;2024-02-26T10:01:19;8.30;99.10
42145;DHT22;27813;43.516;11.890;2024-02-26T10:05:27;8.50;99.20
42145;DHT22;27813;43.516;11.890;2024-02-26T10:09:40;8.90;99.30
42145;DHT22;27813;43.516;11.890;2024-02-26T10:13:45;9.10;99.40
42145;DHT22;27813;43.516;11.890;2024-02-26T10:17:50;9.50;99.50
42145;DHT22;27813;43.516;11.890;2024-02-26T10:21:59;9.70;99.40
42145;DHT22;27813;43.516;11.890;2024-02-26T10:26:05;9.50;99.20
42145;DHT22;27813;43.516;11.890;2024-02-26T10:30:19;9.80;99.20
42145;DHT22;27813;43.516;11.890;2024-02-26T10:34:24;10.10;99.30
42145;DHT22;27813;43.516;11.890;2024-02-26T10:38:33;10.40;99.40
42145;DHT22;27813;43.516;11.890;2024-02-26T10:42:40;10.60;99.40
42145;DHT22;27813;43.516;11.890;2024-02-26T10:46:47;10.70;99.40
42145;DHT22;27813;43.516;11.890;2024-02-26T10:50:55;10.80;99.30
42145;DHT22;27813;43.516;11.890;2024-02-26T10:55:05;10.70;99.20
42145;DHT22;27813;43.516;11.890;2024-02-26T10:59:16;10.70;99.10
42145;DHT22;27813;43.516;11.890;2024-02-26T11:03:30;10.70;99.00
42145;DHT22;27813;43.516;11.890;2024-02-26T11:07:41;10.80;98.90
42145;DHT22;27813;43.516;11.890;2024-02-26T11:11:56;11.00;99.00
42145;DHT22;27813;43.516;11.890;2024-02-26T11:16:01;11.00;98.80
42145;DHT22;27813;43.516;11.890;2024-02-26T11:20:10;11.00;98.60
42145;DHT22;27813;43.516;11.890;2024-02-26T11:24:19;11.10;98.60
42145;DHT22;27813;43.516;11.890;2024-02-26T11:28:28;11.30;98.70
42145;DHT22;27813;43.516;11.890;2024-02-26T11:32:33;11.40;98.70
42145;DHT22;27813;43.516;11.890;2024-02-26T11:36:40;11.30;98.70
42145;DHT22;27813;43.516;11.890;2024-02-26T11:40:48;11.10;98.20
42145;DHT22;27813;43.516;11.890;2024-02-26T11:44:52;10.80;97.60
42145;DHT22;27813;43.516;11.890;2024-02-26T11:49:03;10.60;97.70
42145;DHT22;27813;43.516;11.890;2024-02-26T11:53:28;10.40;97.90
42145;DHT22;27813;43.516;11.890;2024-02-26T11:57:40;10.10;97.10
42145;DHT22;27813;43.516;11.890;2024-02-26T12:01:48;9.80;97.20
42145;DHT22;27813;43.516;11.890;2024-02-26T12:05:53;9.60;97.40
42145;DHT22;27813;43.516;11.890;2024-02-26T12:10:17;9.40;97.30
42145;DHT22;27813;43.516;11.890;2024-02-26T12:14:26;9.40;97.80
42145;DHT22;27813;43.516;11.890;2024-02-26T12:18:31;9.40;98.10
42145;DHT22;27813;43.516;11.890;2024-02-26T12:22:40;9.60;98.50
42145;DHT22;27813;43.516;11.890;2024-02-26T12:26:45;9.80;98.70
42145;DHT22;27813;43.516;11.890;2024-02-26T12:30:52;9.70;98.50
42145;DHT22;27813;43.516;11.890;2024-02-26T12:34:57;9.70;98.40
42145;DHT22;27813;43.516;11.890;2024-02-26T12:39:05;9.50;98.40
42145;DHT22;27813;43.516;11.890;2024-02-26T12:43:10;9.40;98.20
42145;DHT22;27813;43.516;11.890;2024-02-26T12:47:18;9.20;98.10
42145;DHT22;27813;43.516;11.890;2024-02-26T12:51:26;9.00;98.00
42145;DHT22;27813;43.516;11.890;2024-02-26T12:55:32;8.90;98.10
42145;DHT22;27813;43.516;11.890;2024-02-26T12:59:39;8.90;98.30
42145;DHT22;27813;43.516;11.890;2024-02-26T13:03:44;8.90;98.40
42145;DHT22;27813;43.516;11.890;2024-02-26T13:07:49;8.90;98.50
42145;DHT22;27813;43.516;11.890;2024-02-26T13:11:55;8.90;98.40
42145;DHT22;27813;43.516;11.890;2024-02-26T13:16:10;9.00;98.60
42145;DHT22;27813;43.516;11.890;2024-02-26T13:20:26;9.10;98.70
42145;DHT22;27813;43.516;11.890;2024-02-26T13:24:34;9.00;98.60
42145;DHT22;27813;43.516;11.890;2024-02-26T13:28:41;8.90;98.40
42145;DHT22;27813;43.516;11.890;2024-02-26T13:32:45;8.70;98.30
42145;DHT22;27813;43.516;11.890;2024-02-26T13:36:59;8.70;98.40
42145;DHT22;27813;43.516;11.890;2024-02-26T13:41:04;8.80;98.50
42145;DHT22;27813;43.516;11.890;2024-02-26T13:45:08;8.60;98.40
42145;DHT22;27813;43.516;11.890;2024-02-26T13:49:13;8.50;98.40
42145;DHT22;27813;43.516;11.890;2024-02-26T13:53:18;8.50;98.50
42145;DHT22;27813;43.516;11.890;2024-02-26T13:57:23;8.50;98.60
42145;DHT22;27813;43.516;11.890;2024-02-26T14:01:28;8.60;98.60
42145;DHT22;27813;43.516;11.890;2024-02-26T14:05:32;8.50;98.60
42145;DHT22;27813;43.516;11.890;2024-02-26T14:09:36;8.40;98.50
42145;DHT22;27813;43.516;11.890;2024-02-26T14:13:52;8.40;98.50
42145;DHT22;27813;43.516;11.890;2024-02-26T14:17:58;8.40;98.60
42145;DHT22;27813;43.516;11.890;2024-02-26T14:22:04;8.40;98.60
42145;DHT22;27813;43.516;11.890;2024-02-26T14:26:10;8.40;98.50
42145;DHT22;27813;43.516;11.890;2024-02-26T14:30:15;8.20;98.40
42145;DHT22;27813;43.516;11.890;2024-02-26T14:34:20;8.10;98.40
42145;DHT22;27813;43.516;11.890;2024-02-26T14:38:24;8.10;98.50
42145;DHT22;27813;43.516;11.890;2024-02-26T14:42:30;8.00;98.50
42145;DHT22;27813;43.516;11.890;2024-02-26T14:46:37;8.00;98.50
42145;DHT22;27813;43.516;11.890;2024-02-26T14:50:41;8.00;98.50
42145;DHT22;27813;43.516;11.890;2024-02-26T14:54:46;7.90;98.50
42145;DHT22;27813;43.516;11.890;2024-02-26T14:58:51;7.90;98.40
42145;DHT22;27813;43.516;11.890;2024-02-26T15:02:55;7.80;98.40
42145;DHT22;27813;43.516;11.890;2024-02-26T15:07:01;7.80;98.50
42145;DHT22;27813;43.516;11.890;2024-02-26T15:11:07;7.90;98.60
42145;DHT22;27813;43.516;11.890;2024-02-26T15:15:15;7.90;98.60
42145;DHT22;27813;43.516;11.890;2024-02-26T15:19:20;7.90;98.60
42145;DHT22;27813;43.516;11.890;2024-02-26T15:23:24;7.90;98.60
42145;DHT22;27813;43.516;11.890;2024-02-26T15:27:29;7.80;98.50
42145;DHT22;27813;43.516;11.890;2024-02-26T15:31:37;7.80;98.60
42145;DHT22;27813;43.516;11.890;2024-02-26T15:35:44;7.80;98.60
42145;DHT22;27813;43.516;11.890;2024-02-26T15:39:52;7.80;98.60
42145;DHT22;27813;43.516;11.890;2024-02-26T15:43:57;7.80;98.60
42145;DHT22;27813;43.516;11.890;2024-02-26T15:48:01;7.80;98.70
42145;DHT22;27813;43.516;11.890;2024-02-26T15:52:06;7.80;98.70
42145;DHT22;27813;43.516;11.890;2024-02-26T15:56:10;7.70;98.60
42145;DHT22;27813;43.516;11.890;2024-02-26T16:00:15;7.70;98.60
42145;DHT22;27813;43.516;11.890;2024-02-26T16:04:20;7.60;98.60
42145;DHT22;27813;43.516;11.890;2024-02-26T16:08:28;7.60;98.60
42145;DHT22;27813;43.516;11.890;2024-02-26T16:12:38;7.60;98.60
42145;DHT22;27813;43.516;11.890;2024-02-26T16:17:07;7.50;98.50
42145;DHT22;27813;43.516;11.890;2024-02-26T16:21:14;7.50;98.50
42145;DHT22;27813;43.516;11.890;2024-02-26T16:25:19;7.50;98.60
42145;DHT22;27813;43.516;11.890;2024-02-26T16:29:23;7.40;98.50
42145;DHT22;27813;43.516;11.890;2024-02-26T16:33:27;7.40;98.50
42145;DHT22;27813;43.516;11.890;2024-02-26T16:37:33;7.40;98.50
42145;DHT22;27813;43.516;11.890;2024-02-26T16:41:38;7.40;98.50
42145;DHT22;27813;43.516;11.890;2024-02-26T16:45:42;7.30;98.50
42145;DHT22;27813;43.516;11.890;2024-02-26T16:49:48;7.30;98.50
42145;DHT22;27813;43.516;11.890;2024-02-26T16:53:54;7.30;98.60
42145;DHT22;27813;43.516;11.890;2024-02-26T16:57:59;7.20;98.60
42145;DHT22;27813;43.516;11.890;2024-02-26T17:02:12;7.20;98.60
42145;DHT22;27813;43.516;11.890;2024-02-26T17:06:21;7.30;98.70
42145;DHT22;27813;43.516;11.890;2024-02-26T17:10:29;7.30;98.70
42145;DHT22;27813;43.516;11.890;2024-02-26T17:14:36;7.30;98.70
42145;DHT22;27813;43.516;11.890;2024-02-26T17:18:44;7.30;98.70
42145;DHT22;27813;43.516;11.890;2024-02-26T17:22:55;7.30;98.70
42145;DHT22;27813;43.516;11.890;2024-02-26T17:27:14;7.30;98.70
42145;DHT22;27813;43.516;11.890;2024-02-26T17:31:21;7.30;98.70
42145;DHT22;27813;43.516;11.890;2024-02-26T17:35:25;7.30;98.70
42145;DHT22;27813;43.516;11.890;2024-02-26T17:39:30;7.30;98.70
42145;DHT22;27813;43.516;11.890;2024-02-26T17:43:35;7.30;98.70
42145;DHT22;27813;43.516;11.890;2024-02-26T17:47:39;7.30;98.70
42145;DHT22;27813;43.516;11.890;2024-02-26T17:51:45;7.40;98.80
42145;DHT22;27813;43.516;11.890;2024-02-26T17:55:59;7.40;98.80
42145;DHT22;27813;43.516;11.890;2024-02-26T18:00:11;7.40;98.80
42145;DHT22;27813;43.516;11.890;2024-02-26T18:04:15;7.40;98.80
42145;DHT22;27813;43.516;11.890;2024-02-26T18:08:24;7.40;98.80
42145;DHT22;27813;43.516;11.890;2024-02-26T18:12:36;7.40;98.80
42145;DHT22;27813;43.516;11.890;2024-02-26T18:16:40;7.50;98.80
42145;DHT22;27813;43.516;11.890;2024-02-26T18:20:48;7.40;98.80
42145;DHT22;27813;43.516;11.890;2024-02-26T18:24:53;7.50;98.80
42145;DHT22;27813;43.516;11.890;2024-02-26T18:28:59;7.50;98.80
42145;DHT22;27813;43.516;11.890;2024-02-26T18:33:04;7.50;98.90
42145;DHT22;27813;43.516;11.890;2024-02-26T18:37:11;7.50;98.90
42145;DHT22;27813;43.516;11.890;2024-02-26T18:41:22;7.60;98.90
42145;DHT22;27813;43.516;11.890;2024-02-26T18:45:27;7.60;98.90
42145;DHT22;27813;43.516;11.890;2024-02-26T18:49:33;7.60;98.90
42145;DHT22;27813;43.516;11.890;2024-02-26T18:53:41;7.60;98.80
42145;DHT22;27813;43.516;11.890;2024-02-26T18:57:48;7.70;98.90
42145;DHT22;27813;43.516;11.890;2024-02-26T19:01:52;7.60;98.80
42145;DHT22;27813;43.516;11.890;2024-02-26T19:06:17;7.70;98.90
42145;DHT22;27813;43.516;11.890;2024-02-26T19:10:22;7.70;98.90
42145;DHT22;27813;43.516;11.890;2024-02-26T19:14:28;7.70;98.80
42145;DHT22;27813;43.516;11.890;2024-02-26T19:18:33;7.70;98.90
42145;DHT22;27813;43.516;11.890;2024-02-26T19:22:42;7.70;98.90
42145;DHT22;27813;43.516;11.890;2024-02-26T19:26:53;7.70;98.90
42145;DHT22;27813;43.516;11.890;2024-02-26T19:30:59;7.70;98.90
42145;DHT22;27813;43.516;11.890;2024-02-26T19:35:08;7.70;98.90
42145;DHT22;27813;43.516;11.890;2024-02-26T19:39:24;7.80;98.90
42145;DHT22;27813;43.516;11.890;2024-02-26T19:43:30;7.80;98.90
42145;DHT22;27813;43.516;11.890;2024-02-26T19:47:37;7.80;98.90
42145;DHT22;27813;43.516;11.890;2024-02-26T19:51:45;7.90;98.90
42145;DHT22;27813;43.516;11.890;2024-02-26T19:55:53;7.90;98.90
42145;DHT22;27813;43.516;11.890;2024-02-26T20:00:02;7.90;98.90
42145;DHT22;27813;43.516;11.890;2024-02-26T20:04:14;7.90;98.90
42145;DHT22;27813;43.516;11.890;2024-02-26T20:08:24;7.90;98.90
42145;DHT22;27813;43.516;11.890;2024-02-26T20:12:32;8.00;99.00
42145;DHT22;27813;43.516;11.890;2024-02-26T20:16:38;8.00;98.90
42145;DHT22;27813;43.516;11.890;2024-02-26T20:20:45;8.10;99.00
42145;DHT22;27813;43.516;11.890;2024-02-26T20:24:59;8.10;99.00
42145;DHT22;27813;43.516;11.890;2024-02-26T20:29:06;8.10;99.00
42145;DHT22;27813;43.516;11.890;2024-02-26T20:33:13;8.10;99.00
42145;DHT22;27813;43.516;11.890;2024-02-26T20:37:22;8.20;99.00
42145;DHT22;27813;43.516;11.890;2024-02-26T20:41:35;8.20;99.00
42145;DHT22;27813;43.516;11.890;2024-02-26T20:45:40;8.20;99.00
42145;DHT22;27813;43.516;11.890;2024-02-26T20:49:49;8.30;99.10
42145;DHT22;27813;43.516;11.890;2024-02-26T20:53:55;8.40;99.10
42145;DHT22;27813;43.516;11.890;2024-02-26T20:58:16;8.40;99.10
42145;DHT22;27813;43.516;11.890;2024-02-26T21:02:26;8.40;99.10
42145;DHT22;27813;43.516;11.890;2024-02-26T21:06:44;8.40;99.10
42145;DHT22;27813;43.516;11.890;2024-02-26T21:10:51;8.40;99.10
42145;DHT22;27813;43.516;11.890;2024-02-26T21:14:58;8.50;99.10
42145;DHT22;27813;43.516;11.890;2024-02-26T21:19:06;8.50;99.10
42145;DHT22;27813;43.516;11.890;2024-02-26T21:23:16;8.50;99.10
42145;DHT22;27813;43.516;11.890;2024-02-26T21:27:25;8.50;99.10
42145;DHT22;27813;43.516;11.890;2024-02-26T21:31:37;8.60;99.10
42145;DHT22;27813;43.516;11.890;2024-02-26T21:35:42;8.70;99.20
42145;DHT22;27813;43.516;11.890;2024-02-26T21:39:50;8.80;99.20
42145;DHT22;27813;43.516;11.890;2024-02-26T21:43:55;8.80;99.10
42145;DHT22;27813;43.516;11.890;2024-02-26T21:48:00;8.80;99.10
42145;DHT22;27813;43.516;11.890;2024-02-26T21:52:06;8.90;99.10
42145;DHT22;27813;43.516;11.890;2024-02-26T21:56:11;8.90;99.20
42145;DHT22;27813;43.516;11.890;2024-02-26T22:00:18;9.10;99.30
42145;DHT22;27813;43.516;11.890;2024-02-26T22:04:23;9.20;99.30
42145;DHT22;27813;43.516;11.890;2024-02-26T22:08:30;9.30;99.30
42145;DHT22;27813;43.516;11.890;2024-02-26T22:12:37;9.40;99.30
42145;DHT22;27813;43.516;11.890;2024-02-26T22:16:42;9.40;99.30
42145;DHT22;27813;43.516;11.890;2024-02-26T22:20:47;9.40;99.30
42145;DHT22;27813;43.516;11.890;2024-02-26T22:24:52;9.40;99.30
42145;DHT22;27813;43.516;11.890;2024-02-26T22:28:57;9.40;99.20
42145;DHT22;27813;43.516;11.890;2024-02-26T22:33:02;9.40;99.20
42145;DHT22;27813;43.516;11.890;2024-02-26T22:37:07;9.40;99.10
42145;DHT22;27813;43.516;11.890;2024-02-26T22:41:16;9.30;99.10
42145;DHT22;27813;43.516;11.890;2024-02-26T22:45:21;9.30;99.10
42145;DHT22;27813;43.516;11.890;2024-02-26T22:49:33;9.30;99.10
42145;DHT22;27813;43.516;11.890;2024-02-26T22:54:04;9.40;99.10
42145;DHT22;27813;43.516;11.890;2024-02-26T22:58:12;9.40;99.20
42145;DHT22;27813;43.516;11.890;2024-02-26T23:02:17;9.50;99.20
42145;DHT22;27813;43.516;11.890;2024-02-26T23:06:23;9.50;99.20
42145;DHT22;27813;43.516;11.890;2024-02-26T23:10:31;9.60;99.20
42145;DHT22;27813;43.516;11.890;2024-02-26T23:14:40;9.60;99.30
42145;DHT22;27813;43.516;11.890;2024-02-26T23:18:45;9.70;99.30
42145;DHT22;27813;43.516;11.890;2024-02-26T23:22:50;9.70;99.30
42145;DHT22;27813;43.516;11.890;2024-02-26T23:26:55;9.70;99.30
42145;DHT22;27813;43.516;11.890;2024-02-26T23:30:59;9.80;99.20
42145;DHT22;27813;43.516;11.890;2024-02-26T23:35:07;9.80;99.20
42145;DHT22;27813;43.516;11.890;2024-02-26T23:39:12;9.80;99.20
42145;DHT22;27813;43.516;11.890;2024-02-26T23:43:18;9.80;99.20
42145;DHT22;27813;43.516;11.890;2024-02-26T23:47:23;9.80;99.20
42145;DHT22;27813;43.516;11.890;2024-02-26T23:51:27;9.90;99.20
42145;DHT22;27813;43.516;11.890;2024-02-26T23:55:32;9.90;99.20
42145;DHT22;27813;43.516;11.890;2024-02-26T23:59:41;9.90;99.20
